Time;durP1;ratioP1;P1;durP2;ratioP2;P2;SDS_P1;SDS_P2;PMS_P1;PMS_P2;Temp;Humidity;BMP_temperature;BMP_pressure;BME280_temperature;BME280_humidity;BME280_pressure;Samples;Min_cycle;Max_cycle;Signal;HPM_P1;HPM_P2
2022/07/04 00:01:42;;;;;;;4.00;1.83;;;;;;;13.72;60.37;100666.03;5040126;28;20056;-47
2022/07/04 00:04:09;;;;;;;3.83;1.27;;;;;;;13.70;61.13;100663.44;5040011;28;20056;-44
2022/07/04 00:06:36;;;;;;;3.72;1.52;;;;;;;13.69;60.59;100673.84;5039380;28;20049;-44
2022/07/04 00:09:03;;;;;;;3.05;1.20;;;;;;;13.68;60.23;100679.94;5038148;28;20048;-45
2022/07/04 00:11:30;;;;;;;3.13;1.30;;;;;;;13.65;60.91;100673.00;5038559;28;20493;-45
2022/07/04 00:13:56;;;;;;;2.92;1.20;;;;;;;13.62;61.25;100671.25;5039661;28;20607;-46
2022/07/04 00:16:23;;;;;;;5.53;1.52;;;;;;;13.61;61.45;100664.34;5040280;28;20684;-47
2022/07/04 00:18:50;;;;;;;2.50;1.08;;;;;;;13.59;61.67;100676.50;5037300;28;20061;-47
2022/07/04 00:21:16;;;;;;;4.03;1.25;;;;;;;13.57;60.97;100667.84;5039496;28;20056;-44
2022/07/04 00:23:43;;;;;;;2.90;0.95;;;;;;;13.55;61.49;100664.41;5049495;28;20633;-44
2022/07/04 00:26:09;;;;;;;3.83;1.17;;;;;;;13.54;61.32;100660.03;5046361;28;20127;-46
2022/07/04 00:28:36;;;;;;;4.55;1.40;;;;;;;13.51;61.35;100662.66;5042837;28;20053;-46
2022/07/04 00:31:03;;;;;;;3.78;1.42;;;;;;;13.47;61.53;100666.09;5047808;28;20049;-44
2022/07/04 00:33:30;;;;;;;1.73;1.02;;;;;;;13.45;61.88;100673.06;5045086;28;20047;-46
2022/07/04 00:35:56;;;;;;;2.67;1.42;;;;;;;13.42;61.95;100663.56;5041022;28;20045;-45
2022/07/04 00:38:23;;;;;;;4.93;1.27;;;;;;;13.40;61.64;100664.44;5048738;28;20045;-43
2022/07/04 00:40:50;;;;;;;2.85;1.52;;;;;;;13.37;61.54;100663.56;5041881;28;20063;-43
2022/07/04 00:43:26;;;;;;;4.68;1.77;;;;;;;13.34;62.13;100666.16;5046748;28;20053;-44
2022/07/04 00:45:53;;;;;;;;;;;;;;;13.18;62.36;100661.91;5028928;28;20095;-45
2022/07/04 00:48:19;;;;;;;4.70;1.65;;;;;;;13.30;62.46;100659.25;5038937;28;19921;-43
2022/07/04 00:50:47;;;;;;;2.47;1.15;;;;;;;13.28;61.65;100650.59;5045552;28;20106;-44
2022/07/04 00:53:14;;;;;;;3.90;1.40;;;;;;;13.27;62.22;100654.06;5051239;28;20123;-46
2022/07/04 00:55:41;;;;;;;6.65;2.30;;;;;;;13.24;61.91;100651.47;5042997;28;20078;-44
2022/07/04 00:58:09;;;;;;;2.10;1.20;;;;;;;13.22;62.56;100646.28;5044886;28;20045;-43
2022/07/04 01:00:35;;;;;;;4.38;1.65;;;;;;;13.21;61.34;100648.91;5046850;28;20098;-45
2022/07/04 01:03:02;;;;;;;6.55;1.55;;;;;;;13.17;62.03;100642.81;5046713;28;20087;-44
2022/07/04 01:05:28;;;;;;;3.80;1.90;;;;;;;13.14;62.60;100644.59;5043883;28;20073;-45
2022/07/04 01:07:56;;;;;;;4.18;1.95;;;;;;;13.10;62.08;100647.19;5049419;28;20051;-45
2022/07/04 01:10:23;;;;;;;3.75;1.45;;;;;;;13.08;62.01;100648.06;5045487;28;20061;-43
2022/07/04 01:12:50;;;;;;;5.10;1.50;;;;;;;13.05;62.79;100638.56;5044982;28;20041;-44
2022/07/04 01:15:16;;;;;;;4.43;1.98;;;;;;;13.04;62.13;100630.75;5046986;28;20048;-46
2022/07/04 01:17:43;;;;;;;5.60;2.28;;;;;;;13.02;63.08;100638.56;5043092;28;20053;-43
2022/07/04 01:20:12;;;;;;;5.25;2.13;;;;;;;13.02;63.58;100641.16;5042004;28;20493;-43
2022/07/04 01:22:39;;;;;;;5.72;2.15;;;;;;;13.00;62.94;100645.47;5044977;28;20087;-44
2022/07/04 01:25:06;;;;;;;4.75;2.20;;;;;;;13.01;62.35;100641.16;5043880;28;20057;-44
2022/07/04 01:27:32;;;;;;;7.68;2.47;;;;;;;13.03;63.76;100649.84;5040957;28;20091;-44
2022/07/04 01:29:59;;;;;;;7.20;2.63;;;;;;;13.04;63.13;100649.81;5036547;28;20053;-42
2022/07/04 01:32:25;;;;;;;9.25;3.88;;;;;;;13.05;63.02;100651.56;5047137;28;20607;-44
2022/07/04 01:34:52;;;;;;;5.53;2.20;;;;;;;13.05;62.85;100648.97;5042770;28;20508;-43
2022/07/04 01:37:19;;;;;;;4.28;2.28;;;;;;;13.06;63.38;100650.69;5038483;28;20048;-44
2022/07/04 01:39:45;;;;;;;5.85;2.63;;;;;;;13.08;62.46;100650.69;5043347;28;20053;-43
2022/07/04 01:42:12;;;;;;;6.50;2.60;;;;;;;13.06;63.48;100629.88;5045321;28;20458;-44
2022/07/04 01:44:38;;;;;;;4.00;2.10;;;;;;;13.04;62.86;100610.78;5041792;28;20053;-46
2022/07/04 01:47:05;;;;;;;6.03;1.83;;;;;;;13.00;62.82;100616.88;5045528;28;20609;-43
2022/07/04 01:49:32;;;;;;;4.75;2.63;;;;;;;12.98;62.98;100616.03;5042798;28;20064;-43
2022/07/04 01:51:58;;;;;;;6.55;2.47;;;;;;;12.94;63.26;100622.13;5037392;28;20103;-44
2022/07/04 01:54:26;;;;;;;5.47;2.65;;;;;;;12.92;62.95;100622.13;5041692;28;20044;-43
2022/07/04 01:56:53;;;;;;;5.53;2.80;;;;;;;12.91;64.26;100622.13;5041968;28;20061;-43
2022/07/04 02:01:29;;;;;;;7.32;2.70;;;;;;;12.89;63.42;100616.94;5042311;28;20049;-45
2022/07/04 02:02:06;;;;;;;6.68;2.72;;;;;;;12.88;63.47;100616.94;5037179;28;20052;-43
2022/07/04 02:04:33;;;;;;;7.57;2.63;;;;;;;12.85;64.00;100605.69;5041605;28;20045;-44
2022/07/04 02:07:00;;;;;;;5.30;3.00;;;;;;;12.84;64.63;100614.34;5044938;28;20205;-45
2022/07/04 02:09:28;;;;;;;5.95;2.72;;;;;;;12.83;63.79;100612.63;5029520;28;20088;-45
2022/07/04 02:14:42;;;;;;;5.50;2.72;;;;;;;12.79;64.79;100626.50;5018334;28;20045;-44
2022/07/04 02:17:09;;;;;;;3.38;1.92;;;;;;;12.79;65.33;100623.91;5021272;28;20752;-44
2022/07/04 02:19:37;;;;;;;4.80;2.63;;;;;;;12.79;65.43;100617.81;5024661;28;20049;-44
2022/07/04 02:22:03;;;;;;;4.07;1.90;;;;;;;12.79;65.49;100610.91;5022345;28;20532;-44
2022/07/04 02:24:30;;;;;;;3.67;2.08;;;;;;;12.79;64.72;100610.91;5013126;28;20046;-45
2022/07/04 02:26:57;;;;;;;4.13;1.92;;;;;;;12.81;64.56;100613.50;5021138;28;20053;-44
2022/07/04 02:29:23;;;;;;;3.13;1.90;;;;;;;12.82;65.30;100621.28;5015466;28;20184;-43
2022/07/04 02:31:50;;;;;;;5.78;1.85;;;;;;;12.85;64.79;100626.47;5022310;28;20584;-43
2022/07/04 02:34:17;;;;;;;2.35;1.25;;;;;;;12.85;65.63;100634.28;5014132;28;20908;-45
2022/07/04 02:36:44;;;;;;;3.53;1.83;;;;;;;12.84;64.50;100624.72;5014433;28;20041;-45
2022/07/04 02:39:10;;;;;;;3.25;1.20;;;;;;;12.85;65.37;100630.81;5020786;28;20053;-45
2022/07/04 02:41:37;;;;;;;4.60;2.03;;;;;;;12.85;65.37;100621.28;5022017;28;20100;-46
2022/07/04 02:44:04;;;;;;;4.80;1.90;;;;;;;12.83;65.65;100628.22;5020506;28;20053;-45
2022/07/04 02:46:32;;;;;;;4.13;1.65;;;;;;;12.83;65.53;100637.72;5023303;28;20473;-44
2022/07/04 02:49:00;;;;;;;5.15;1.92;;;;;;;12.82;65.67;100642.09;5019015;28;20057;-44
2022/07/04 02:51:27;;;;;;;4.22;1.48;;;;;;;12.81;64.38;100634.28;5020354;28;20099;-43
2022/07/04 02:53:55;;;;;;;4.18;1.88;;;;;;;12.78;64.38;100632.56;5021148;28;20429;-46
2022/07/04 02:56:22;;;;;;;3.60;1.80;;;;;;;12.78;65.31;100639.50;5020261;28;20098;-45
2022/07/04 02:58:48;;;;;;;5.00;1.35;;;;;;;12.76;64.43;100643.84;5020570;28;20053;-45
2022/07/04 03:01:15;;;;;;;3.42;1.63;;;;;;;12.73;65.61;100634.28;5043032;28;20049;-46
2022/07/04 03:03:42;;;;;;;3.58;1.45;;;;;;;12.72;64.73;100629.97;5044966;28;20045;-45
2022/07/04 03:06:09;;;;;;;4.85;1.80;;;;;;;12.66;64.66;100619.59;5043371;28;20105;-45
2022/07/04 03:08:37;;;;;;;3.83;1.40;;;;;;;12.61;65.78;100627.41;5041098;28;20049;-44
2022/07/04 03:11:04;;;;;;;3.65;1.60;;;;;;;12.55;65.56;100633.47;5041687;28;20632;-44
2022/07/04 03:13:31;;;;;;;3.70;1.63;;;;;;;12.49;66.31;100627.44;5044573;28;20049;-44
2022/07/04 03:15:58;;;;;;;4.68;1.70;;;;;;;12.47;65.20;100630.03;5040978;28;20547;-43
2022/07/04 03:18:24;;;;;;;6.45;1.83;;;;;;;12.44;65.65;100624.81;5040737;28;20071;-44
2022/07/04 03:20:51;;;;;;;2.92;1.60;;;;;;;12.42;66.33;100621.34;5044827;28;20048;-43
2022/07/04 03:23:18;;;;;;;4.05;1.13;;;;;;;12.40;65.99;100617.91;5043030;28;20052;-43
2022/07/04 03:25:45;;;;;;;2.40;1.55;;;;;;;12.39;65.65;100611.00;5044819;28;20041;-42
2022/07/04 03:28:12;;;;;;;3.80;1.85;;;;;;;12.37;65.51;100612.72;5046120;28;20061;-43
2022/07/04 03:30:38;;;;;;;5.22;1.65;;;;;;;12.35;66.19;100602.31;5040321;28;20106;-43
2022/07/04 03:33:05;;;;;;;3.80;1.60;;;;;;;12.33;65.93;100604.91;5043216;28;20072;-44
2022/07/04 03:35:32;;;;;;;3.92;1.50;;;;;;;12.31;65.31;100598.88;5045188;28;20052;-43
2022/07/04 03:37:58;;;;;;;2.40;1.20;;;;;;;12.28;66.73;100598.88;5044993;28;20045;-43
2022/07/04 03:40:28;;;;;;;1.88;1.10;;;;;;;12.27;65.66;100604.94;5046198;28;20049;-43
2022/07/04 03:42:54;;;;;;;3.53;1.20;;;;;;;12.24;65.80;100607.53;5049897;28;20053;-43
2022/07/04 03:45:21;;;;;;;1.92;1.25;;;;;;;12.24;66.42;100602.34;5046089;28;20052;-44
2022/07/04 03:47:48;;;;;;;2.95;1.50;;;;;;;12.23;66.40;100595.41;5047361;28;20040;-42
2022/07/04 03:50:14;;;;;;;2.78;1.73;;;;;;;12.21;65.73;100586.75;5045831;28;20045;-44
2022/07/04 03:52:41;;;;;;;2.53;1.25;;;;;;;12.20;65.89;100585.03;5047274;28;20045;-43
2022/07/04 03:55:08;;;;;;;3.03;1.40;;;;;;;12.20;65.92;100590.22;5045660;28;20061;-43
2022/07/04 03:57:35;;;;;;;5.68;1.42;;;;;;;12.17;66.17;100585.91;5029124;28;20531;-43
2022/07/04 04:00:03;;;;;;;3.78;1.30;;;;;;;12.16;66.10;100588.50;5021822;28;20045;-43
2022/07/04 04:02:30;;;;;;;2.10;1.20;;;;;;;12.14;66.26;100585.03;5018492;28;20108;-44
2022/07/04 04:07:43;;;;;;;4.88;1.65;;;;;;;12.10;66.70;100591.97;5020382;28;20493;-45
2022/07/04 04:10:11;;;;;;;4.05;1.58;;;;;;;12.09;65.76;100590.22;5029613;28;20057;-43
2022/07/04 04:12:37;;;;;;;1.85;0.85;;;;;;;12.08;65.70;100596.28;5019711;28;20418;-43
2022/07/04 04:15:05;;;;;;;1.80;1.30;;;;;;;12.05;66.71;100589.31;5035943;28;20057;-43
2022/07/04 04:17:31;;;;;;;4.45;1.10;;;;;;;12.05;65.98;100597.13;5040897;28;20060;-44
2022/07/04 04:19:58;;;;;;;4.50;1.63;;;;;;;12.04;66.97;100589.31;5039916;28;20048;-44
2022/07/04 04:22:24;;;;;;;2.33;1.20;;;;;;;12.01;66.83;100590.19;5047293;28;20041;-44
2022/07/04 04:24:51;;;;;;;2.88;1.15;;;;;;;11.98;66.39;100595.38;5046107;28;20100;-42
2022/07/04 04:27:17;;;;;;;3.85;1.27;;;;;;;11.98;66.29;100597.09;5049528;28;20712;-42
2022/07/04 04:29:44;;;;;;;5.57;1.42;;;;;;;11.98;66.31;100608.34;5044818;28;20045;-44
2022/07/04 04:32:11;;;;;;;1.50;0.75;;;;;;;11.98;67.58;100605.75;5039468;28;20142;-43
2022/07/04 04:34:37;;;;;;;6.35;1.10;;;;;;;12.01;67.33;100610.09;5046001;28;20048;-45
2022/07/04 04:37:04;;;;;;;1.55;0.90;;;;;;;12.04;67.41;100608.38;5042634;28;20049;-44
2022/07/04 04:39:31;;;;;;;3.10;0.93;;;;;;;12.04;67.18;100608.38;5044143;28;20100;-43
2022/07/04 04:41:57;;;;;;;2.20;1.02;;;;;;;12.07;67.34;100611.00;5045422;28;20053;-42
2022/07/04 04:44:24;;;;;;;2.03;1.30;;;;;;;12.10;67.52;100604.06;5044609;28;20045;-44
2022/07/04 04:46:50;;;;;;;3.17;1.15;;;;;;;12.13;66.91;100619.66;5043586;28;20049;-44
2022/07/04 04:49:18;;;;;;;1.77;1.05;;;;;;;12.14;66.62;100605.78;5045832;28;20048;-43
2022/07/04 04:51:44;;;;;;;2.38;1.08;;;;;;;12.18;67.91;100607.53;5044061;28;20080;-44
2022/07/04 04:54:11;;;;;;;1.73;0.80;;;;;;;12.21;66.66;100617.91;5050147;28;20045;-42
2022/07/04 04:56:38;;;;;;;3.20;1.00;;;;;;;12.23;67.38;100611.00;5044390;28;20045;-42
2022/07/04 04:59:04;;;;;;;1.85;0.77;;;;;;;12.25;67.89;100608.38;5044712;28;20485;-43
2022/07/04 05:01:31;;;;;;;3.75;0.90;;;;;;;12.29;67.42;100603.19;5046706;28;20044;-43
2022/07/04 05:04:14;;;;;;;4.43;0.95;;;;;;;12.33;67.38;100607.50;5042115;28;20140;-44
2022/07/04 05:06:41;;;;;;;2.80;1.08;;;;;;;12.37;67.37;100607.50;5045372;28;20033;-43
2022/07/04 05:09:08;;;;;;;3.50;0.88;;;;;;;12.40;67.41;100612.72;5041151;28;20102;-43
2022/07/04 05:11:34;;;;;;;2.67;0.63;;;;;;;12.44;67.31;100611.84;5046081;28;20052;-44
2022/07/04 05:14:01;;;;;;;1.73;1.05;;;;;;;12.44;67.88;100607.53;5047186;28;20049;-47
2022/07/04 05:16:28;;;;;;;1.60;0.70;;;;;;;12.51;67.60;100616.16;5034065;28;20051;-45
2022/07/04 05:18:55;;;;;;;2.50;1.13;;;;;;;12.56;67.95;100613.53;5045653;28;20048;-42
2022/07/04 05:21:21;;;;;;;1.38;0.85;;;;;;;12.64;67.39;100621.31;5043025;28;20045;-45
2022/07/04 05:23:48;;;;;;;2.88;0.90;;;;;;;12.74;67.42;100612.66;5044430;28;20049;-45
2022/07/04 05:26:15;;;;;;;2.83;0.93;;;;;;;12.85;67.49;100613.50;5042290;28;20063;-43
2022/07/04 05:28:41;;;;;;;3.65;1.30;;;;;;;12.97;67.27;100614.31;5049021;28;20114;-44
2022/07/04 05:31:08;;;;;;;3.42;1.00;;;;;;;13.10;67.54;100616.00;5045265;28;20142;-43
2022/07/04 05:33:34;;;;;;;1.80;1.10;;;;;;;13.27;67.06;100612.44;5046244;28;20099;-43
2022/07/04 05:36:01;;;;;;;1.50;0.82;;;;;;;13.39;67.61;100610.66;5031680;28;20050;-43
2022/07/04 05:38:28;;;;;;;4.45;1.35;;;;;;;13.54;67.27;100615.78;5015142;28;20099;-44
2022/07/04 05:40:54;;;;;;;2.33;1.15;;;;;;;13.72;67.50;100620.00;5022184;28;20053;-44
2022/07/04 05:43:21;;;;;;;3.38;0.70;;;;;;;13.93;66.42;100618.16;5018551;28;20080;-46
2022/07/04 05:45:48;;;;;;;1.88;0.75;;;;;;;14.01;66.90;100615.47;5021082;28;20046;-44
2022/07/04 05:48:15;;;;;;;2.80;1.10;;;;;;;14.04;66.02;100615.44;5035056;28;20053;-44
2022/07/04 05:50:42;;;;;;;2.67;0.73;;;;;;;14.22;66.55;100613.59;5045216;28;20520;-44
2022/07/04 05:53:08;;;;;;;2.35;1.02;;;;;;;14.45;66.92;100610.75;5042065;28;20444;-43
2022/07/04 05:55:35;;;;;;;2.70;0.90;;;;;;;14.72;67.02;100610.47;5042581;28;20098;-45
2022/07/04 05:58:02;;;;;;;3.55;0.77;;;;;;;14.95;67.09;100609.38;5037188;28;20053;-43
2022/07/04 06:00:28;;;;;;;3.13;0.93;;;;;;;15.21;66.28;100616.91;5016627;28;20112;-45
2022/07/04 06:02:55;;;;;;;1.65;0.93;;;;;;;15.45;66.02;100613.97;5013002;28;20072;-44
2022/07/04 06:05:22;;;;;;;1.38;1.10;;;;;;;15.68;65.04;100617.09;5013116;28;20054;-45
2022/07/04 06:07:49;;;;;;;3.65;0.88;;;;;;;15.87;65.01;100611.59;5012097;28;20038;-45
2022/07/04 06:10:15;;;;;;;1.75;0.60;;;;;;;16.08;65.03;100620.03;5013585;28;20057;-43
2022/07/04 06:12:42;;;;;;;2.55;0.85;;;;;;;16.29;64.22;100623.16;5006680;28;20139;-44
2022/07/04 06:15:09;;;;;;;1.75;1.17;;;;;;;16.50;63.97;100613.19;5011609;28;20057;-44
2022/07/04 06:17:37;;;;;;;1.65;0.60;;;;;;;16.72;63.90;100621.50;5026013;28;20048;-43
2022/07/04 06:20:04;;;;;;;3.15;0.70;;;;;;;16.92;63.91;100613.25;5036847;28;20548;-45
2022/07/04 06:22:41;;;;;;;2.05;0.70;;;;;;;17.15;62.93;100614.56;5040140;28;20053;-45
2022/07/04 06:25:13;;;;;;;2.45;0.57;;;;;;;17.37;62.77;100608.88;5037189;28;20061;-47
2022/07/04 06:27:41;;;;;;;5.10;0.50;;;;;;;17.58;62.02;100599.69;5035359;28;20560;-45
2022/07/04 06:30:09;;;;;;;3.03;1.05;;;;;;;17.73;61.95;100603.69;5037540;28;20087;-48
2022/07/04 06:32:54;;;;;;;2.47;0.80;;;;;;;17.86;61.28;100598.16;5039702;28;20049;-47
2022/07/04 06:38:12;;;;;;;1.73;0.90;;;;;;;18.24;60.98;100596.34;5030699;28;20052;-49
2022/07/04 06:40:40;;;;;;;1.48;0.73;;;;;;;18.45;60.43;100594.09;5022808;28;20110;-44
2022/07/04 06:43:06;;;;;;;4.35;1.67;;;;;;;18.64;60.12;100598.81;5038247;28;20544;-45
2022/07/04 06:45:34;;;;;;;1.77;0.90;;;;;;;18.83;59.95;100603.53;5041213;28;21826;-47
2022/07/04 06:48:03;;;;;;;2.65;0.80;;;;;;;19.02;59.22;100609.13;5036335;28;20465;-45
2022/07/04 06:50:32;;;;;;;2.50;0.73;;;;;;;19.22;59.20;100611.19;5036778;28;20061;-45
2022/07/04 06:53:08;;;;;;;3.15;1.13;;;;;;;19.43;58.33;100611.47;5035744;28;20056;-46
2022/07/04 06:55:39;;;;;;;1.35;0.85;;;;;;;19.66;57.72;100615.13;5036950;28;20173;-45
2022/07/04 06:58:07;;;;;;;1.70;1.08;;;;;;;19.88;57.33;100598.66;5038205;28;20052;-46
2022/07/04 07:00:35;;;;;;;3.38;0.70;;;;;;;20.08;57.14;100605.91;5039414;28;20667;-46
2022/07/04 07:03:02;;;;;;;1.95;0.77;;;;;;;20.28;56.44;100607.88;5038203;28;20475;-46
2022/07/04 07:05:29;;;;;;;1.02;0.73;;;;;;;20.43;56.14;100602.97;5038710;28;20056;-44
2022/07/04 07:08:16;;;;;;;1.52;0.70;;;;;;;20.60;55.24;100599.72;5034408;28;20052;-49
2022/07/04 07:10:42;;;;;;;1.30;0.82;;;;;;;20.73;54.90;100601.94;5036788;28;20056;-45
2022/07/04 07:13:10;;;;;;;1.30;0.88;;;;;;;20.96;54.96;100597.59;5032455;28;20115;-45
2022/07/04 07:15:37;;;;;;;2.97;0.75;;;;;;;21.17;54.88;100606.47;5038579;28;20427;-45
2022/07/04 07:18:04;;;;;;;2.13;0.90;;;;;;;21.36;53.95;100605.75;5036301;28;20049;-45
2022/07/04 07:20:31;;;;;;;2.05;0.60;;;;;;;21.59;54.01;100607.50;5037045;28;20056;-45
2022/07/04 07:22:58;;;;;;;3.33;0.75;;;;;;;21.85;52.97;100602.94;5034403;28;20089;-48
2022/07/04 07:25:25;;;;;;;2.17;0.80;;;;;;;22.07;53.06;100613.47;5038282;28;20091;-46
2022/07/04 07:27:51;;;;;;;2.65;0.60;;;;;;;22.25;52.35;100610.97;5043240;28;20049;-45
2022/07/04 07:30:18;;;;;;;1.42;0.88;;;;;;;22.40;51.31;100613.88;5041833;28;20585;-47
2022/07/04 07:32:45;;;;;;;1.45;0.82;;;;;;;22.47;50.84;100610.88;5038921;28;20048;-45
2022/07/04 07:35:14;;;;;;;1.20;0.63;;;;;;;22.67;51.56;100610.97;5039800;28;20053;-46
2022/07/04 07:37:41;;;;;;;1.92;0.60;;;;;;;22.92;51.02;100612.50;5042003;28;20045;-44
2022/07/04 07:40:09;;;;;;;2.28;0.80;;;;;;;23.14;50.17;100615.03;5038289;28;20642;-49
2022/07/04 07:42:36;;;;;;;1.58;0.70;;;;;;;23.32;49.70;100623.88;5042374;28;20103;-46
2022/07/04 07:45:03;;;;;;;1.27;0.65;;;;;;;23.48;49.86;100613.44;5041265;28;20060;-45
2022/07/04 07:47:30;;;;;;;1.10;0.60;;;;;;;23.68;49.33;100609.00;5043198;28;20044;-44
2022/07/04 07:49:57;;;;;;;0.90;0.50;;;;;;;23.82;48.63;100610.06;5045112;28;20501;-47
2022/07/04 07:52:23;;;;;;;1.77;0.98;;;;;;;23.94;47.87;100608.63;5043808;28;20049;-46
2022/07/04 07:54:53;;;;;;;2.88;0.70;;;;;;;24.06;47.43;100615.94;5045535;28;20059;-47
2022/07/04 07:57:29;;;;;;;2.63;0.60;;;;;;;24.24;47.10;100610.66;5044515;28;20128;-47
2022/07/04 07:59:56;;;;;;;1.60;0.77;;;;;;;24.36;47.63;100610.03;5043585;28;20052;-48
2022/07/04 08:04:34;;;;;;;1.77;0.90;;;;;;;24.56;46.80;100609.91;5045058;28;20075;-49
2022/07/04 08:05:11;;;;;;;1.30;0.40;;;;;;;24.67;45.84;100606.69;5031855;28;20055;-45
2022/07/04 08:07:38;;;;;;;3.45;0.85;;;;;;;24.73;46.52;100601.06;5041867;28;20044;-47
2022/07/04 08:10:05;;;;;;;3.38;1.00;;;;;;;24.94;46.73;100603.50;5045069;28;20056;-45
2022/07/04 08:12:31;;;;;;;1.60;1.00;;;;;;;25.08;46.34;100600.97;5043735;28;20048;-47
2022/07/04 08:14:58;;;;;;;1.98;0.80;;;;;;;25.25;45.57;100601.81;5044693;28;20041;-47
2022/07/04 08:17:32;;;;;;;1.98;0.50;;;;;;;25.37;44.89;100595.00;5040017;28;20124;-45
2022/07/04 08:19:59;;;;;;;1.23;0.60;;;;;;;25.51;45.13;100591.53;5041002;28;20053;-46
2022/07/04 08:22:25;;;;;;;1.48;0.60;;;;;;;25.66;44.28;100592.47;5042831;28;20441;-46
2022/07/04 08:24:52;;;;;;;0.90;0.60;;;;;;;25.66;44.10;100601.31;5042883;28;20056;-47
2022/07/04 08:27:20;;;;;;;1.17;0.70;;;;;;;25.73;43.81;100599.13;5045303;28;20048;-44
2022/07/04 08:29:46;;;;;;;2.05;0.70;;;;;;;25.76;43.20;100591.00;5046867;28;20042;-46
2022/07/04 08:32:14;;;;;;;1.42;0.80;;;;;;;25.78;42.85;100604.19;5045933;28;20071;-45
2022/07/04 08:34:42;;;;;;;2.13;0.60;;;;;;;25.70;42.91;100606.44;5049828;28;20048;-45
2022/07/04 08:37:10;;;;;;;2.88;0.70;;;;;;;25.39;41.70;100615.16;5047172;28;20106;-45
2022/07/04 08:39:36;;;;;;;1.92;0.32;;;;;;;25.08;42.01;100616.00;5042956;28;20045;-45
2022/07/04 08:42:09;;;;;;;3.35;0.50;;;;;;;24.78;42.42;100620.22;5039969;28;20057;-48
2022/07/04 08:44:41;;;;;;;2.17;0.50;;;;;;;24.46;42.68;100614.84;5029869;28;20489;-48
2022/07/04 08:47:10;;;;;;;3.47;0.57;;;;;;;24.26;43.45;100624.69;5028560;28;20056;-50
2022/07/04 08:49:45;;;;;;;3.13;1.20;;;;;;;24.25;43.60;100628.25;5044449;28;20056;-48
2022/07/04 08:52:18;;;;;;;4.45;0.98;;;;;;;24.26;43.54;100624.69;5044940;28;20059;-47
2022/07/04 09:00:18;;;;;;;1.65;0.70;;;;;;;23.93;44.06;100633.34;5039140;28;20053;-46
2022/07/04 09:02:45;;;;;;;1.30;0.70;;;;;;;23.75;44.22;100639.47;5042397;28;20071;-49
2022/07/04 09:05:12;;;;;;;1.27;0.60;;;;;;;23.58;43.71;100642.09;5043952;28;20052;-48
2022/07/04 09:07:39;;;;;;;2.72;1.25;;;;;;;23.39;44.83;100639.44;5040546;28;20052;-45
2022/07/04 09:10:07;;;;;;;2.03;0.70;;;;;;;23.26;44.16;100634.72;5023169;28;20049;-49
2022/07/04 09:12:33;;;;;;;2.92;0.77;;;;;;;23.08;44.93;100631.16;5033353;28;20052;-46
2022/07/04 09:15:20;;;;;;;1.45;0.90;;;;;;;22.90;44.85;100627.56;5048178;28;20506;-46
2022/07/04 09:17:47;;;;;;;1.67;0.68;;;;;;;22.86;45.39;100624.19;5043369;28;20079;-51
2022/07/04 09:20:17;;;;;;;2.15;0.63;;;;;;;22.78;45.63;100627.19;5042846;28;20048;-49
2022/07/04 09:22:45;;;;;;;2.85;0.60;;;;;;;22.59;45.80;100620.09;5046309;28;20088;-48
2022/07/04 09:25:14;;;;;;;4.43;0.60;;;;;;;22.44;45.93;100626.00;5042616;28;20425;-48
2022/07/04 09:27:45;;;;;;;2.60;0.70;;;;;;;22.37;45.59;100624.56;5041161;28;20041;-48
2022/07/04 09:30:15;;;;;;;1.20;0.47;;;;;;;22.36;45.90;100628.13;5041793;28;20053;-46
2022/07/04 09:35:22;;;;;;;1.75;1.17;;;;;;;22.72;44.55;100625.69;5105078;27;20415;-50
2022/07/04 09:37:51;;;;;;;;;;;;;;;22.27;45.44;100624.97;5061422;28;20518;-46
2022/07/04 09:43:11;;;;;;;2.50;1.20;;;;;;;22.30;46.69;100635.41;4983524;27;20425;-50
2022/07/04 09:45:54;;;;;;;1.67;0.70;;;;;;;22.19;45.70;100627.06;5003245;28;20046;-49
2022/07/04 09:48:21;;;;;;;2.28;1.08;;;;;;;22.22;46.49;100632.19;5030076;28;20434;-46
2022/07/04 09:50:47;;;;;;;1.63;0.60;;;;;;;22.22;46.26;100632.19;4999185;28;20536;-47
2022/07/04 09:53:14;;;;;;;1.75;0.60;;;;;;;22.18;46.47;100627.97;4999885;28;20061;-49
2022/07/04 09:55:41;;;;;;;1.48;1.13;;;;;;;22.09;46.30;100627.44;5000342;28;20061;-46
2022/07/04 09:58:11;;;;;;;1.20;0.88;;;;;;;22.06;46.14;100632.00;5000422;28;20108;-49
2022/07/04 10:00:39;;;;;;;1.63;1.38;;;;;;;22.06;45.86;100632.84;4982711;28;20046;-50
2022/07/04 10:03:27;;;;;;;2.03;0.60;;;;;;;22.03;46.27;100640.91;5002948;28;20046;-48
2022/07/04 10:08:40;;;;;;;2.75;0.80;;;;;;;22.17;46.40;100634.19;5041044;27;20398;-47
2022/07/04 10:11:08;;;;;;;3.50;0.90;;;;;;;22.13;45.65;100633.47;5016199;28;20053;-47
2022/07/04 10:13:38;;;;;;;1.27;0.75;;;;;;;22.09;46.26;100643.28;5020342;28;20393;-48
2022/07/04 10:16:07;;;;;;;1.20;0.60;;;;;;;22.06;45.87;100653.94;5023089;28;20037;-48
2022/07/04 10:18:35;;;;;;;1.08;0.52;;;;;;;22.03;46.23;100640.91;5020714;28;20196;-45
2022/07/04 10:21:02;;;;;;;1.92;0.75;;;;;;;22.12;46.42;100644.09;5008466;28;20093;-48
2022/07/04 10:23:32;;;;;;;2.22;1.00;;;;;;;22.11;45.48;100645.84;5000489;28;20060;-47
2022/07/04 10:25:59;;;;;;;1.58;0.52;;;;;;;22.09;45.71;100653.81;4999342;28;20054;-44
2022/07/04 10:28:26;;;;;;;1.67;0.75;;;;;;;22.06;45.19;100653.94;5004220;28;20050;-44
2022/07/04 10:30:55;;;;;;;0.88;0.55;;;;;;;21.95;45.85;100648.25;4999196;28;20049;-45
2022/07/04 10:33:25;;;;;;;2.63;1.52;;;;;;;21.87;45.75;100642.44;4990404;28;20049;-45
2022/07/04 10:36:02;;;;;;;;;;;;;;;21.63;46.41;100645.13;4999752;28;20184;-44
2022/07/04 10:38:30;;;;;;;1.27;0.70;;;;;;;21.74;45.92;100642.06;4998051;28;20401;-46
2022/07/04 10:41:07;;;;;;;2.55;0.68;;;;;;;21.65;46.05;100646.78;5000994;28;20053;-45
2022/07/04 10:48:52;;;;;;;2.53;0.95;;;;;;;21.56;46.45;100653.28;5048153;27;20740;-47
2022/07/04 11:00:05;;;;;;;2.80;2.60;;;;;;;21.24;47.22;100650.09;5038142;27;20410;-47
2022/07/04 11:02:34;;;;;;;2.72;2.08;;;;;;;21.14;47.36;100654.00;5019638;28;20104;-45
2022/07/04 11:05:13;;;;;;;2.45;1.98;;;;;;;21.04;47.04;100654.34;5022210;28;20123;-46
2022/07/04 11:18:10;;;;;;;2.17;1.67;;;;;;;20.96;48.07;100656.41;5024129;28;20948;-47
2022/07/04 11:20:38;;;;;;;;;;;;;;;20.94;48.60;100652.97;5013957;28;20046;-46
2022/07/04 11:25:43;;;;;;;1.55;0.63;;;;;;;21.31;47.82;100650.75;5052598;28;20419;-45
2022/07/04 11:30:56;;;;;;;1.88;1.55;;;;;;;21.43;48.29;100649.41;5041359;27;20403;-45
2022/07/04 11:33:25;;;;;;;;;;;;;;;21.32;47.97;100658.56;5034255;28;20071;-45
2022/07/04 11:38:55;;;;;;;2.65;2.10;;;;;;;22.03;48.13;100654.09;5039133;28;20448;-46
2022/07/04 11:49:46;;;;;;;2.85;0.57;;;;;;;22.10;46.13;100659.97;5097331;27;20434;-46
2022/07/04 11:52:13;;;;;;;2.15;0.57;;;;;;;22.11;45.96;100655.53;5058731;28;20123;-47
2022/07/04 11:54:42;;;;;;;0.60;0.45;;;;;;;22.13;46.58;100659.84;5069380;28;20470;-45
2022/07/04 11:57:26;;;;;;;3.17;1.05;;;;;;;22.12;46.03;100657.28;5054048;28;20148;-47
2022/07/04 11:59:56;;;;;;;3.47;0.60;;;;;;;22.13;46.49;100658.97;5052166;28;20041;-47
2022/07/04 12:02:24;;;;;;;1.25;0.50;;;;;;;22.19;46.73;100659.56;5074579;28;20814;-47
2022/07/04 12:04:51;;;;;;;3.72;0.77;;;;;;;22.28;46.38;100652.19;5062509;28;20064;-46
2022/07/04 12:07:19;;;;;;;3.92;0.60;;;;;;;22.38;46.73;100653.53;5077053;28;20044;-47
2022/07/04 12:09:47;;;;;;;0.85;0.40;;;;;;;22.40;45.75;100650.81;5057784;28;20079;-46
2022/07/04 12:12:17;;;;;;;1.40;0.90;;;;;;;22.30;46.25;100651.22;5063532;28;20146;-45
2022/07/04 12:15:05;;;;;;;1.08;0.70;;;;;;;22.20;45.83;100657.81;5052084;28;20049;-46
2022/07/04 12:17:35;;;;;;;1.35;0.70;;;;;;;22.21;46.06;100651.59;5067711;28;20044;-47
2022/07/04 12:22:43;;;;;;;1.58;1.48;;;;;;;22.06;45.70;100659.22;5044954;28;20405;-47
2022/07/04 12:28:07;;;;;;;5.20;1.00;;;;;;;21.99;45.99;100652.50;5059175;27;20403;-46
2022/07/04 12:30:47;;;;;;;1.77;1.05;;;;;;;22.05;46.45;100652.25;5038273;28;20126;-46
2022/07/04 12:33:17;;;;;;;4.90;0.80;;;;;;;22.01;46.16;100644.50;5041052;28;20084;-48
2022/07/04 12:43:46;;;;;;;2.00;0.90;;;;;;;22.73;46.14;100647.69;5055519;27;20396;-46
2022/07/04 12:46:31;;;;;;;2.20;1.17;;;;;;;22.97;45.93;100660.69;4996349;28;20049;-46
2022/07/04 12:48:59;;;;;;;3.50;0.80;;;;;;;23.20;45.44;100648.22;4996419;28;20137;-47